Time;durP1;ratioP1;P1;durP2;ratioP2;P2;SDS_P1;SDS_P2;PMS_P1;PMS_P2;Temp;Humidity;BMP_temperature;BMP_pressure;BME280_temperature;BME280_humidity;BME280_pressure;Samples;Min_cycle;Max_cycle;Signal;HPM_P1;HPM_P2
2021/09/03 00:00:28;;;;;;;9.57;5.13;;;;;;;15.11;66.63;97222.81;4979908;28;20055;-81
2021/09/03 00:03:00;;;;;;;8.00;5.60;;;;;;;15.09;66.88;97224.00;4979872;28;20035;-82
2021/09/03 00:05:29;;;;;;;6.78;5.20;;;;;;;15.08;68.76;97223.19;4980047;28;20051;-82
2021/09/03 00:07:58;;;;;;;8.65;6.78;;;;;;;15.06;67.13;97217.31;4980201;28;20027;-82
2021/09/03 00:10:28;;;;;;;8.02;6.32;;;;;;;15.07;67.02;97226.03;4979650;28;20043;-82
2021/09/03 00:12:59;;;;;;;8.05;6.20;;;;;;;15.04;66.87;97214.06;4980044;28;20047;-82
2021/09/03 00:15:28;;;;;;;8.77;6.35;;;;;;;14.99;66.88;97219.91;4979940;28;20078;-83
2021/09/03 00:20:37;;;;;;;7.90;6.32;;;;;;;14.98;66.56;97218.28;5109281;23;20146;-81
2021/09/03 00:23:05;;;;;;;8.55;6.30;;;;;;;14.96;66.94;97219.50;4956472;28;20047;-81
2021/09/03 00:25:33;;;;;;;6.45;5.45;;;;;;;14.95;67.41;97212.59;4956801;28;20055;-81
2021/09/03 00:28:02;;;;;;;7.18;5.68;;;;;;;14.95;66.89;97220.47;4956953;28;20066;-81
2021/09/03 00:30:30;;;;;;;7.35;5.78;;;;;;;14.93;67.92;97214.63;4956918;28;20070;-81
2021/09/03 00:32:58;;;;;;;7.57;6.43;;;;;;;14.90;67.13;97220.25;4956550;28;20464;-81
2021/09/03 00:35:26;;;;;;;8.68;6.72;;;;;;;14.88;67.20;97211.75;5018334;23;20040;-80
2021/09/03 00:37:55;;;;;;;11.43;6.82;;;;;;;14.85;67.25;97207.72;5016631;28;20081;-80
2021/09/03 00:40:23;;;;;;;7.15;6.28;;;;;;;14.83;67.74;97207.91;5016516;28;20114;-80
2021/09/03 00:42:52;;;;;;;9.02;6.50;;;;;;;14.81;67.43;97196.78;5016877;28;20099;-80
2021/09/03 00:45:24;;;;;;;9.30;6.93;;;;;;;14.79;67.65;97193.53;5016843;28;20034;-80
2021/09/03 00:47:54;;;;;;;7.18;6.22;;;;;;;14.76;67.13;97199.19;5016935;28;20073;-81
2021/09/03 00:50:23;;;;;;;9.13;7.00;;;;;;;14.73;67.45;97193.50;5016512;28;20046;-80
2021/09/03 00:52:52;;;;;;;8.00;6.03;;;;;;;14.72;68.21;97191.88;5017126;28;20034;-80
2021/09/03 00:55:20;;;;;;;7.57;6.05;;;;;;;14.66;67.39;97190.03;5016891;28;20041;-80
2021/09/03 00:57:49;;;;;;;8.43;6.65;;;;;;;14.60;67.59;97191.59;5016741;28;20046;-80
2021/09/03 01:00:18;;;;;;;7.55;5.82;;;;;;;14.61;67.89;97201.09;5016689;28;20049;-80
2021/09/03 01:02:49;;;;;;;10.73;7.22;;;;;;;14.64;68.97;97190.22;5016969;28;20042;-80
2021/09/03 01:05:22;;;;;;;8.00;6.53;;;;;;;14.63;68.15;97185.97;5016602;28;20087;-80
2021/09/03 01:07:51;;;;;;;;;;;;;;;14.63;67.70;97183.34;5017154;28;20057;-81
2021/09/03 01:10:21;;;;;;;7.10;5.97;;;;;;;14.57;67.49;97189.38;5016566;28;19916;-80
2021/09/03 01:12:52;;;;;;;9.32;6.68;;;;;;;14.57;69.33;97190.16;5016962;28;20038;-80
2021/09/03 01:15:21;;;;;;;7.43;6.13;;;;;;;14.60;69.37;97188.97;5016154;28;20038;-81
2021/09/03 01:17:51;;;;;;;8.23;5.90;;;;;;;14.65;70.56;97186.59;5016531;28;20053;-81
2021/09/03 01:20:19;;;;;;;7.88;6.60;;;;;;;14.61;68.12;97182.72;5016560;28;20058;-80
2021/09/03 01:22:49;;;;;;;11.18;7.07;;;;;;;14.54;67.77;97184.44;5016335;28;20141;-80
2021/09/03 01:25:19;;;;;;;8.20;5.90;;;;;;;14.50;68.28;97183.25;5016393;28;20055;-80
2021/09/03 01:27:48;;;;;;;8.57;6.10;;;;;;;14.49;69.27;97185.03;5016486;28;20043;-81
2021/09/03 01:30:17;;;;;;;11.13;6.85;;;;;;;14.49;68.55;97182.41;5016041;28;20058;-80
2021/09/03 01:32:48;;;;;;;8.90;6.60;;;;;;;14.49;68.60;97179.78;5016626;28;20075;-79
2021/09/03 01:35:17;;;;;;;11.75;7.15;;;;;;;14.45;67.97;97181.16;5019372;28;20046;-80
2021/09/03 01:37:46;;;;;;;8.65;6.53;;;;;;;14.47;69.90;97186.22;5019921;28;20077;-80
2021/09/03 01:40:15;;;;;;;9.30;6.93;;;;;;;14.46;68.39;97180.19;5020281;28;20081;-80
2021/09/03 01:42:44;;;;;;;10.07;6.13;;;;;;;14.43;68.28;97183.19;5020563;28;20034;-80
2021/09/03 01:45:13;;;;;;;7.43;6.10;;;;;;;14.40;68.05;97183.56;5019542;28;20106;-81
2021/09/03 01:47:42;;;;;;;8.20;6.45;;;;;;;14.33;67.82;97183.50;5020200;28;20082;-80
2021/09/03 01:50:11;;;;;;;9.55;6.90;;;;;;;14.30;68.01;97178.66;5019529;28;20030;-80
2021/09/03 01:52:40;;;;;;;10.88;6.80;;;;;;;14.25;67.95;97169.72;5020014;28;20069;-80
2021/09/03 01:55:09;;;;;;;9.30;7.55;;;;;;;14.20;67.68;97178.16;5019350;28;20042;-81
2021/09/03 01:57:39;;;;;;;8.05;6.65;;;;;;;14.17;68.87;97179.38;5019304;28;20050;-81
2021/09/03 02:00:09;;;;;;;8.77;5.68;;;;;;;14.18;68.99;97174.94;5019411;28;20038;-80
2021/09/03 02:02:41;;;;;;;8.15;6.45;;;;;;;14.16;68.69;97172.47;5020039;28;20054;-80
2021/09/03 02:05:11;;;;;;;6.45;5.63;;;;;;;14.20;70.29;97172.94;5019749;28;20069;-79
2021/09/03 02:07:39;;;;;;;7.57;6.78;;;;;;;14.23;68.86;97172.53;5019334;28;20058;-80
2021/09/03 02:10:10;;;;;;;9.82;6.45;;;;;;;14.22;69.01;97160.44;5020011;28;20046;-81
2021/09/03 02:12:40;;;;;;;8.40;6.88;;;;;;;14.24;69.31;97163.66;5019735;28;20042;-80
2021/09/03 02:15:09;;;;;;;8.82;6.32;;;;;;;14.21;67.95;97161.41;5019028;28;20110;-80
2021/09/03 02:17:38;;;;;;;10.55;7.10;;;;;;;14.13;67.82;97162.38;5018937;28;20037;-79
2021/09/03 02:20:09;;;;;;;8.52;7.07;;;;;;;14.08;67.56;97164.78;5019185;28;20081;-80
2021/09/03 02:22:38;;;;;;;8.27;5.70;;;;;;;14.06;68.86;97168.56;5019263;28;20050;-80
2021/09/03 02:25:06;;;;;;;8.10;6.10;;;;;;;14.07;69.17;97163.13;5019242;28;20058;-79
2021/09/03 02:27:35;;;;;;;8.15;6.78;;;;;;;14.08;68.87;97169.19;5019671;28;20073;-79
2021/09/03 02:30:06;;;;;;;8.23;6.80;;;;;;;14.15;69.76;97164.81;5019280;28;20051;-80
2021/09/03 02:32:35;;;;;;;9.15;6.57;;;;;;;14.15;68.52;97160.38;5018409;28;20069;-80
2021/09/03 02:35:05;;;;;;;8.32;6.72;;;;;;;14.10;67.63;97151.44;5018902;28;20031;-80
2021/09/03 02:37:34;;;;;;;10.40;7.18;;;;;;;14.00;67.46;97147.34;5019026;28;20095;-80
2021/09/03 02:40:03;;;;;;;8.93;7.68;;;;;;;13.93;67.85;97149.09;5019048;28;20073;-79
2021/09/03 02:42:32;;;;;;;9.27;6.85;;;;;;;13.88;67.77;97148.84;5018940;28;20046;-80
2021/09/03 02:45:00;;;;;;;9.60;7.10;;;;;;;13.89;68.50;97140.00;5017618;28;20074;-80
2021/09/03 02:47:31;;;;;;;9.30;6.57;;;;;;;13.94;69.14;97147.28;5018799;28;20054;-80
2021/09/03 02:49:59;;;;;;;7.97;6.47;;;;;;;13.97;68.88;97146.91;5018952;28;20042;-81
2021/09/03 02:52:28;;;;;;;9.60;6.55;;;;;;;13.97;68.33;97146.91;5018516;28;20043;-79
2021/09/03 02:54:58;;;;;;;7.38;6.45;;;;;;;13.99;68.64;97144.91;5018416;28;20026;-80
2021/09/03 02:57:26;;;;;;;8.18;6.10;;;;;;;13.99;69.21;97145.75;5018917;28;20081;-79
2021/09/03 02:59:55;;;;;;;7.53;5.82;;;;;;;14.02;70.06;97137.47;5018330;28;20046;-80
2021/09/03 03:02:23;;;;;;;7.63;5.82;;;;;;;14.04;68.80;97137.28;5018507;28;20106;-81
2021/09/03 03:04:53;;;;;;;8.18;6.35;;;;;;;14.07;68.68;97141.34;5018792;28;20065;-80
2021/09/03 03:07:22;;;;;;;8.18;5.82;;;;;;;14.09;68.78;97134.09;5018540;28;20066;-79
2021/09/03 03:09:50;;;;;;;10.15;6.18;;;;;;;14.11;68.33;97129.47;5018363;28;20054;-79
2021/09/03 03:12:20;;;;;;;7.55;5.80;;;;;;;14.13;68.58;97130.09;5018458;28;20046;-81
2021/09/03 03:14:49;;;;;;;6.68;5.60;;;;;;;14.15;69.76;97131.53;5017153;28;20046;-79
2021/09/03 03:17:19;;;;;;;7.47;6.07;;;;;;;14.17;69.10;97120.84;5017602;28;20060;-80
2021/09/03 03:19:48;;;;;;;8.30;6.15;;;;;;;14.16;68.25;97127.88;5017434;28;20054;-80
2021/09/03 03:22:18;;;;;;;7.13;6.05;;;;;;;14.15;68.42;97128.09;5018320;28;20074;-79
2021/09/03 03:24:46;;;;;;;10.07;6.40;;;;;;;14.16;69.17;97132.31;5018322;28;20062;-80
2021/09/03 03:27:15;;;;;;;6.07;5.40;;;;;;;14.18;68.71;97117.19;5017562;28;20051;-80
2021/09/03 03:29:46;;;;;;;6.90;6.07;;;;;;;14.22;69.42;97115.81;5018403;28;20081;-80
2021/09/03 03:32:14;;;;;;;8.13;5.97;;;;;;;14.23;68.71;97120.06;5017939;28;20046;-80
2021/09/03 03:34:44;;;;;;;6.70;5.63;;;;;;;14.24;70.19;97115.63;5017771;28;20050;-80
2021/09/03 03:37:13;;;;;;;7.32;5.70;;;;;;;14.27;69.93;97120.50;5017717;28;20026;-80
2021/09/03 03:39:42;;;;;;;7.35;5.70;;;;;;;14.32;70.85;97120.72;5017783;28;20050;-79
2021/09/03 03:42:11;;;;;;;7.43;6.05;;;;;;;14.33;68.63;97117.09;5017770;28;20050;-80
2021/09/03 03:44:39;;;;;;;12.32;6.50;;;;;;;14.27;68.10;97121.28;5017579;28;20081;-80
2021/09/03 03:47:08;;;;;;;9.23;6.93;;;;;;;14.24;68.76;97129.56;5018002;28;20045;-81
2021/09/03 03:49:36;;;;;;;6.93;5.75;;;;;;;14.29;70.01;97113.25;5016931;28;20057;-81
2021/09/03 03:52:04;;;;;;;9.40;6.13;;;;;;;14.26;68.39;97109.19;5017443;28;20031;-80
2021/09/03 03:54:33;;;;;;;7.10;5.65;;;;;;;14.25;68.17;97106.75;5017055;28;20045;-80
2021/09/03 03:57:02;;;;;;;10.50;6.30;;;;;;;14.18;68.05;97111.97;5017017;28;20081;-80
2021/09/03 03:59:31;;;;;;;9.15;6.22;;;;;;;14.20;69.44;97113.38;5017174;28;20058;-80
2021/09/03 04:01:59;;;;;;;8.75;5.70;;;;;;;14.20;68.68;97104.72;5016987;28;20054;-79
2021/09/03 04:04:28;;;;;;;6.45;5.68;;;;;;;14.22;69.08;97114.00;5017762;28;20030;-79
2021/09/03 04:06:56;;;;;;;7.03;5.90;;;;;;;14.20;68.09;97117.81;5018238;28;20045;-83
2021/09/03 04:09:24;;;;;;;7.82;6.18;;;;;;;14.18;69.97;97109.34;5017819;28;20034;-82
2021/09/03 04:11:53;;;;;;;8.80;6.10;;;;;;;14.17;69.79;97110.34;5018273;28;20050;-82
2021/09/03 04:14:22;;;;;;;7.97;6.63;;;;;;;14.13;68.82;97103.84;5018154;28;20049;-82
2021/09/03 04:16:50;;;;;;;7.18;5.90;;;;;;;14.09;69.92;97113.91;5017311;28;20062;-82
2021/09/03 04:19:18;;;;;;;7.28;6.05;;;;;;;14.02;68.54;97120.94;5017295;28;20042;-83
2021/09/03 04:21:46;;;;;;;7.25;6.22;;;;;;;14.02;70.03;97126.19;5017287;28;20074;-83
2021/09/03 04:24:14;;;;;;;8.40;6.47;;;;;;;14.05;70.19;97111.88;5018006;28;20054;-83
2021/09/03 04:26:43;;;;;;;7.63;5.65;;;;;;;14.10;71.53;97122.59;5018322;28;20077;-82
2021/09/03 04:29:11;;;;;;;8.52;6.55;;;;;;;14.12;70.09;97112.72;5018253;28;20051;-82
2021/09/03 04:31:40;;;;;;;10.00;5.85;;;;;;;14.16;70.84;97109.50;5017302;28;20054;-83
2021/09/03 04:34:09;;;;;;;7.80;5.88;;;;;;;14.17;69.82;97110.34;5016401;28;20050;-82
2021/09/03 04:36:37;;;;;;;7.63;6.50;;;;;;;14.18;69.30;97114.56;5016929;28;20073;-83
2021/09/03 04:39:05;;;;;;;10.68;6.88;;;;;;;14.17;69.99;97113.78;5016501;28;20045;-83
2021/09/03 04:41:33;;;;;;;6.55;5.95;;;;;;;14.21;71.27;97111.56;5016992;28;20046;-83
2021/09/03 04:44:01;;;;;;;8.88;6.63;;;;;;;14.20;69.20;97115.19;5016578;28;20041;-83
2021/09/03 04:46:29;;;;;;;8.52;6.35;;;;;;;14.19;70.30;97121.44;5016317;28;20428;-83
2021/09/03 04:48:58;;;;;;;9.18;5.55;;;;;;;14.21;70.88;97116.81;5015678;28;20078;-82
2021/09/03 04:51:27;;;;;;;7.97;5.97;;;;;;;14.25;72.27;97128.53;5016513;28;20077;-82
2021/09/03 04:53:55;;;;;;;12.85;6.47;;;;;;;14.29;72.21;97126.34;5016675;28;20061;-83
2021/09/03 04:56:23;;;;;;;11.60;7.07;;;;;;;14.27;69.36;97131.78;5015958;28;20081;-82
2021/09/03 04:58:51;;;;;;;7.63;6.18;;;;;;;14.20;69.87;97125.69;5015530;28;20042;-82
2021/09/03 05:01:19;;;;;;;6.88;6.18;;;;;;;14.19;70.80;97122.28;5016152;28;20114;-83
2021/09/03 05:03:48;;;;;;;8.32;6.40;;;;;;;14.18;70.57;97118.00;5015830;28;20108;-82
2021/09/03 05:06:18;;;;;;;7.63;6.30;;;;;;;14.25;71.35;97122.50;5016301;28;20073;-83
2021/09/03 05:08:48;;;;;;;;;;;;;;;14.32;70.70;97125.97;5016223;28;20074;-80
2021/09/03 05:11:17;;;;;;;9.43;6.38;;;;;;;14.33;71.52;97128.41;5016235;28;19941;-80
2021/09/03 05:13:48;;;;;;;12.45;6.57;;;;;;;14.35;70.63;97118.53;5015967;28;20085;-79
2021/09/03 05:16:16;;;;;;;7.28;6.07;;;;;;;14.35;70.27;97120.34;5016397;28;20103;-80
2021/09/03 05:18:45;;;;;;;15.10;6.55;;;;;;;14.36;70.99;97119.34;5016209;28;20061;-79
2021/09/03 05:21:12;;;;;;;10.63;7.32;;;;;;;14.33;70.72;97117.09;5016077;28;20054;-83
2021/09/03 05:23:42;;;;;;;8.73;6.88;;;;;;;14.35;71.54;97121.16;5015908;28;20041;-83
2021/09/03 05:26:10;;;;;;;11.20;7.35;;;;;;;14.34;69.53;97119.53;5015867;28;20073;-83
2021/09/03 05:28:40;;;;;;;8.32;6.80;;;;;;;14.32;70.58;97123.34;5015727;28;20050;-83
2021/09/03 05:31:08;;;;;;;10.82;6.10;;;;;;;14.36;70.90;97119.34;5016259;28;20050;-83
2021/09/03 05:33:36;;;;;;;9.32;6.82;;;;;;;14.38;69.76;97119.94;5015819;28;20509;-82
2021/09/03 05:36:04;;;;;;;8.30;6.95;;;;;;;14.34;68.55;97124.78;5015652;28;20046;-83
2021/09/03 05:38:32;;;;;;;9.75;6.93;;;;;;;14.32;70.26;97121.56;5015712;28;20055;-82
2021/09/03 05:41:04;;;;;;;9.95;7.38;;;;;;;14.34;69.62;97114.28;5015625;28;20062;-83
2021/09/03 05:43:33;;;;;;;8.70;6.75;;;;;;;14.34;68.82;97121.34;5015923;28;20514;-83
2021/09/03 05:46:01;;;;;;;9.95;6.43;;;;;;;14.35;70.28;97113.28;5016198;28;20051;-82
2021/09/03 05:48:29;;;;;;;7.97;6.40;;;;;;;14.39;70.36;97118.97;5016122;28;20034;-82
2021/09/03 05:51:00;;;;;;;9.63;6.55;;;;;;;14.42;69.90;97108.88;5015906;28;20061;-83
2021/09/03 05:53:29;;;;;;;11.82;6.60;;;;;;;14.47;70.13;97110.09;5016103;28;20050;-82
2021/09/03 05:55:57;;;;;;;8.18;6.28;;;;;;;14.50;71.48;97112.38;5015880;28;20047;-82
2021/09/03 05:58:26;;;;;;;12.48;7.03;;;;;;;14.55;70.76;97117.88;5015799;28;20122;-82
2021/09/03 06:00:54;;;;;;;8.30;7.10;;;;;;;14.58;70.49;97120.09;5015831;28;20055;-82
2021/09/03 06:03:23;;;;;;;8.93;6.40;;;;;;;14.61;70.10;97117.09;5016044;28;20097;-83
2021/09/03 06:05:51;;;;;;;10.60;7.65;;;;;;;14.62;69.94;97119.50;5015586;28;20060;-82
2021/09/03 06:08:19;;;;;;;11.90;8.10;;;;;;;14.61;69.27;97117.09;5015941;28;20043;-82
2021/09/03 06:10:48;;;;;;;10.18;7.13;;;;;;;14.59;69.20;97119.09;5016059;28;20050;-83
2021/09/03 06:13:16;;;;;;;12.20;8.38;;;;;;;14.57;69.05;97111.41;5016766;28;20070;-83
2021/09/03 06:15:45;;;;;;;8.90;7.35;;;;;;;14.59;71.14;97113.84;5016255;28;20050;-83
2021/09/03 06:18:15;;;;;;;11.80;7.40;;;;;;;14.66;70.83;97103.38;5015609;28;20073;-82
2021/09/03 06:20:43;;;;;;;7.78;6.18;;;;;;;14.74;70.57;97106.66;5018030;28;20050;-83
2021/09/03 06:23:12;;;;;;;11.43;6.32;;;;;;;14.83;70.17;97104.66;5019582;28;20068;-82
2021/09/03 06:25:40;;;;;;;8.93;6.22;;;;;;;14.93;70.65;97114.78;5019426;28;20050;-83
2021/09/03 06:28:09;;;;;;;10.13;6.68;;;;;;;15.01;70.46;97117.25;5019384;28;20034;-80
2021/09/03 06:30:37;;;;;;;10.85;7.18;;;;;;;15.09;69.45;97114.47;5019111;28;20042;-80
2021/09/03 06:33:07;;;;;;;10.98;7.40;;;;;;;15.16;69.41;97110.03;5019162;28;20050;-81
2021/09/03 06:35:35;;;;;;;8.85;7.22;;;;;;;15.23;68.92;97116.09;5012166;23;20471;-81
2021/09/03 06:38:03;;;;;;;14.45;7.25;;;;;;;15.33;69.11;97121.00;4997563;28;20046;-81
2021/09/03 06:40:31;;;;;;;10.07;7.18;;;;;;;15.40;68.32;97119.19;4998265;28;20054;-81
2021/09/03 06:42:58;;;;;;;9.77;7.07;;;;;;;15.48;68.56;97120.00;4997711;28;20057;-81
2021/09/03 06:45:26;;;;;;;11.43;7.25;;;;;;;15.58;68.45;97117.78;4997787;28;20050;-81
2021/09/03 06:47:54;;;;;;;17.38;7.30;;;;;;;15.66;68.61;97121.03;4997974;28;20430;-81
2021/09/03 06:50:23;;;;;;;13.85;6.70;;;;;;;15.76;68.92;97119.84;4997504;28;20060;-81
2021/09/03 06:52:51;;;;;;;10.00;6.65;;;;;;;15.87;68.63;97127.13;4997882;28;20426;-81
2021/09/03 06:55:19;;;;;;;7.82;6.35;;;;;;;15.97;68.64;97117.03;4997513;28;20110;-81
2021/09/03 06:57:47;;;;;;;8.55;6.60;;;;;;;16.08;68.12;97109.53;4997779;28;20050;-81
2021/09/03 07:00:15;;;;;;;6.93;6.07;;;;;;;16.19;68.46;97111.53;4998568;28;20064;-81
2021/09/03 07:02:42;;;;;;;7.07;5.90;;;;;;;16.32;68.92;97119.41;4998431;28;20506;-81
2021/09/03 07:05:12;;;;;;;7.75;5.65;;;;;;;16.42;67.84;97106.66;4998235;28;20073;-81
2021/09/03 07:07:41;;;;;;;9.25;5.93;;;;;;;16.57;66.71;97110.84;4998310;28;20145;-81
2021/09/03 07:10:10;;;;;;;8.05;6.07;;;;;;;16.72;66.23;97113.25;4999270;28;20137;-80
2021/09/03 07:12:41;;;;;;;6.95;5.70;;;;;;;16.83;66.66;97116.06;4999767;28;20092;-79
2021/09/03 07:15:10;;;;;;;7.63;5.85;;;;;;;16.98;65.59;97113.16;4999410;28;20042;-79
2021/09/03 07:17:38;;;;;;;9.23;6.43;;;;;;;17.11;65.50;97117.56;4999537;28;20073;-80
2021/09/03 07:20:07;;;;;;;7.93;5.88;;;;;;;17.23;66.15;97121.16;4999667;28;20061;-79
2021/09/03 07:22:35;;;;;;;10.00;6.30;;;;;;;17.40;65.37;97110.09;5001269;28;20050;-79
2021/09/03 07:25:05;;;;;;;6.47;5.28;;;;;;;17.56;64.81;97108.78;5001414;28;20042;-79
2021/09/03 07:27:34;;;;;;;6.78;5.47;;;;;;;17.69;64.28;97120.06;5001063;28;20046;-79
2021/09/03 07:30:01;;;;;;;7.40;5.40;;;;;;;17.86;64.26;97117.75;5000613;28;20050;-79
2021/09/03 07:32:31;;;;;;;5.53;4.78;;;;;;;18.04;62.85;97127.53;5001809;28;20077;-80
2021/09/03 07:34:59;;;;;;;6.85;5.05;;;;;;;18.24;61.86;97126.56;5001825;28;20488;-79
2021/09/03 07:37:28;;;;;;;6.93;5.30;;;;;;;18.44;61.30;97121.88;5001757;28;20050;-80
2021/09/03 07:39:55;;;;;;;5.05;4.47;;;;;;;18.65;60.42;97122.47;5002940;28;20060;-80
2021/09/03 07:42:24;;;;;;;6.95;4.72;;;;;;;18.82;60.51;97114.78;5003356;28;20148;-79
2021/09/03 07:44:52;;;;;;;5.10;4.60;;;;;;;19.00;60.73;97114.78;5002524;28;20522;-79
2021/09/03 07:47:20;;;;;;;5.57;4.63;;;;;;;19.20;59.72;97113.69;5003411;28;20054;-80
2021/09/03 07:50:08;;;;;;;4.13;3.72;;;;;;;19.41;59.07;97120.34;5004444;28;20117;-81
2021/09/03 07:52:36;;;;;;;4.80;4.22;;;;;;;19.60;59.28;97121.91;5003473;28;20042;-80
2021/09/03 07:55:05;;;;;;;5.53;4.28;;;;;;;19.78;58.04;97120.25;5001260;28;20100;-81
2021/09/03 07:57:34;;;;;;;5.55;4.47;;;;;;;19.96;56.21;97117.50;4998077;28;20511;-81
2021/09/03 08:00:02;;;;;;;7.20;5.07;;;;;;;20.14;55.76;97119.25;4994688;28;20172;-81
2021/09/03 08:02:29;;;;;;;9.10;4.85;;;;;;;20.33;54.65;97117.28;4994151;28;20058;-81
2021/09/03 08:04:57;;;;;;;7.05;4.70;;;;;;;20.51;54.60;97119.81;4994093;28;20082;-81
2021/09/03 08:07:27;;;;;;;4.65;4.15;;;;;;;20.67;56.00;97113.03;4994099;28;20054;-81
2021/09/03 08:09:55;;;;;;;5.07;4.30;;;;;;;20.84;53.87;97112.28;4994421;28;20058;-81
2021/09/03 08:12:24;;;;;;;6.45;4.40;;;;;;;20.96;54.08;97108.56;4994352;28;20050;-81
2021/09/03 08:14:53;;;;;;;4.70;4.30;;;;;;;21.12;54.54;97108.84;4994218;28;20415;-81
2021/09/03 08:17:21;;;;;;;4.45;3.60;;;;;;;21.28;52.75;97113.41;4994145;28;20057;-81
2021/09/03 08:19:48;;;;;;;4.68;3.97;;;;;;;21.45;53.43;97108.19;4993828;28;20058;-81
2021/09/03 08:22:16;;;;;;;3.72;3.17;;;;;;;21.63;52.29;97112.47;4993985;28;20050;-82
2021/09/03 08:24:43;;;;;;;5.80;4.57;;;;;;;21.80;51.25;97115.94;4993964;28;20054;-81
2021/09/03 08:27:11;;;;;;;5.68;4.10;;;;;;;21.96;49.85;97118.84;4995054;28;20126;-82
2021/09/03 08:29:38;;;;;;;4.97;4.15;;;;;;;22.12;49.97;97117.22;5000517;28;20053;-82
2021/09/03 08:32:07;;;;;;;4.38;3.97;;;;;;;22.27;50.78;97116.66;4999187;28;20130;-82
2021/09/03 08:34:35;;;;;;;3.38;3.03;;;;;;;22.42;49.86;97114.22;4994615;28;20054;-82
2021/09/03 08:37:03;;;;;;;4.95;3.45;;;;;;;22.57;49.66;97118.94;4995893;28;20455;-82
2021/09/03 08:39:30;;;;;;;8.18;4.15;;;;;;;22.71;47.48;97112.22;4995959;28;20412;-82
2021/09/03 08:41:58;;;;;;;10.07;3.97;;;;;;;22.81;47.13;97115.00;4994958;28;20054;-82
2021/09/03 08:44:29;;;;;;;4.07;3.60;;;;;;;22.91;46.42;97116.16;4995115;28;20046;-82
2021/09/03 08:46:56;;;;;;;11.55;3.92;;;;;;;23.03;45.91;97108.91;4995316;28;20046;-82
2021/09/03 08:49:26;;;;;;;4.88;3.05;;;;;;;23.13;44.52;97110.84;4995500;28;20201;-82
2021/09/03 08:51:54;;;;;;;5.75;3.67;;;;;;;23.18;44.01;97108.28;4995172;28;20435;-82
2021/09/03 08:54:22;;;;;;;4.25;3.25;;;;;;;23.19;44.37;97112.53;4995259;28;20057;-82
2021/09/03 08:56:49;;;;;;;7.90;3.55;;;;;;;23.26;44.22;97102.47;4995026;28;20061;-82
2021/09/03 08:59:17;;;;;;;4.30;3.30;;;;;;;23.38;43.94;97108.47;4994306;28;20050;-82
2021/09/03 09:01:45;;;;;;;3.88;3.20;;;;;;;23.53;43.94;97099.84;4994646;28;20054;-82
2021/09/03 09:04:15;;;;;;;4.47;3.47;;;;;;;23.72;44.05;97102.91;4995322;28;20054;-82
2021/09/03 09:07:01;;;;;;;5.20;3.00;;;;;;;23.87;42.98;97115.59;4995030;28;20054;-82
2021/09/03 09:09:31;;;;;;;4.30;3.22;;;;;;;23.98;42.16;97111.13;4994957;28;20081;-82
2021/09/03 09:12:02;;;;;;;3.58;3.13;;;;;;;24.13;41.14;97113.13;4994758;28;20059;-82
2021/09/03 09:14:30;;;;;;;6.97;3.08;;;;;;;24.30;41.50;97113.75;4994375;28;20065;-82
2021/09/03 09:17:04;;;;;;;4.45;3.22;;;;;;;24.55;40.88;97112.34;4994860;28;20050;-82
2021/09/03 09:19:45;;;;;;;4.88;2.72;;;;;;;24.86;40.32;97108.75;4994295;28;20555;-82
2021/09/03 09:22:14;;;;;;;3.88;2.85;;;;;;;25.39;39.09;97114.00;4994585;28;20054;-82
2021/09/03 09:24:42;;;;;;;4.68;2.95;;;;;;;25.93;36.81;97119.94;5004331;28;20419;-81
2021/09/03 09:27:09;;;;;;;4.50;2.60;;;;;;;26.31;36.12;97110.56;5005399;28;20057;-81
2021/09/03 09:29:38;;;;;;;5.18;2.63;;;;;;;26.38;35.23;97120.97;5002838;28;20065;-82
2021/09/03 09:32:08;;;;;;;2.55;2.35;;;;;;;26.36;36.27;97115.88;4994275;28;20077;-81
2021/09/03 09:34:38;;;;;;;4.60;2.88;;;;;;;26.44;36.05;97112.66;4994121;28;20050;-82
2021/09/03 09:37:07;;;;;;;3.28;2.88;;;;;;;26.55;35.14;97105.41;4993719;28;20050;-81
2021/09/03 09:39:43;;;;;;;4.18;2.50;;;;;;;26.69;36.14;97098.44;5002576;28;20058;-81
2021/09/03 09:42:19;;;;;;;5.40;3.22;;;;;;;26.98;34.52;97097.78;5005297;28;20058;-81
2021/09/03 09:44:47;;;;;;;3.28;2.70;;;;;;;27.47;34.22;97094.31;4995240;28;20512;-81
2021/09/03 09:47:20;;;;;;;3.78;2.65;;;;;;;28.00;32.99;97087.50;4994101;28;20054;-81
2021/09/03 09:49:48;;;;;;;4.55;2.72;;;;;;;28.21;31.81;97094.28;4993955;28;20050;-81
2021/09/03 09:52:15;;;;;;;5.18;2.63;;;;;;;27.94;32.22;97090.25;4993456;28;20062;-82
2021/09/03 09:54:44;;;;;;;3.88;3.03;;;;;;;27.62;32.04;97082.69;4996360;28;20054;-82
2021/09/03 09:57:13;;;;;;;3.40;2.55;;;;;;;27.33;33.17;97090.66;4997118;28;20108;-81
2021/09/03 09:59:41;;;;;;;4.00;2.75;;;;;;;27.16;33.51;97088.31;4996817;28;20042;-81
2021/09/03 10:02:08;;;;;;;2.97;2.65;;;;;;;27.12;34.01;97073.88;4997324;28;20062;-81
2021/09/03 10:04:37;;;;;;;4.07;3.08;;;;;;;27.15;34.46;97076.00;4997012;28;20489;-81
2021/09/03 10:07:05;;;;;;;3.83;3.10;;;;;;;27.21;33.90;97077.59;4998127;28;20050;-81
2021/09/03 10:09:33;;;;;;;3.17;2.88;;;;;;;27.20;32.97;97067.94;4997914;28;20050;-81
2021/09/03 10:12:03;;;;;;;3.70;3.05;;;;;;;27.08;32.49;97081.66;4997972;28;20082;-82
2021/09/03 10:14:34;;;;;;;3.97;2.70;;;;;;;26.94;33.59;97078.00;4998077;28;20050;-82
2021/09/03 10:17:02;;;;;;;3.33;2.63;;;;;;;26.92;34.22;97069.44;4997778;28;20050;-81
2021/09/03 10:19:32;;;;;;;3.28;2.67;;;;;;;26.83;33.11;97071.91;4997799;28;20057;-82
2021/09/03 10:22:02;;;;;;;4.85;2.88;;;;;;;26.67;33.36;97063.13;4997997;28;20050;-81
2021/09/03 10:24:30;;;;;;;3.03;2.53;;;;;;;26.55;33.91;97054.59;4997832;28;20050;-82
2021/09/03 10:26:58;;;;;;;3.08;2.70;;;;;;;26.52;34.79;97065.81;4997697;28;20047;-82
2021/09/03 10:29:32;;;;;;;3.40;2.83;;;;;;;26.53;33.98;97067.44;4997524;28;20081;-81
2021/09/03 10:32:22;;;;;;;;;;;;;;;26.61;35.94;97053.53;4997983;28;20054;-81
2021/09/03 10:35:01;;;;;;;2.75;2.50;;;;;;;26.79;34.61;97054.00;4997144;28;19921;-82
2021/09/03 10:37:38;;;;;;;3.67;3.03;;;;;;;26.81;34.24;97052.63;4997261;28;20046;-82
2021/09/03 10:40:41;;;;;;;4.63;2.55;;;;;;;26.75;34.76;97047.59;4997320;28;20058;-81
2021/09/03 10:43:08;;;;;;;2.72;2.47;;;;;;;26.70;34.52;97048.41;4983478;28;20459;-82
2021/09/03 10:45:41;;;;;;;3.15;2.80;;;;;;;26.62;34.02;97044.41;4996870;28;20065;-82
2021/09/03 10:48:12;;;;;;;4.50;2.95;;;;;;;26.60;34.86;97051.13;4997560;28;20075;-81
2021/09/03 10:50:47;;;;;;;2.92;2.28;;;;;;;26.59;34.28;97047.66;4996850;28;20050;-82
2021/09/03 10:53:24;;;;;;;2.78;2.47;;;;;;;26.57;35.49;97047.13;4996847;28;20058;-82
2021/09/03 10:55:58;;;;;;;2.60;2.40;;;;;;;26.61;34.68;97042.00;4996184;28;20051;-82
2021/09/03 10:58:44;;;;;;;3.25;2.40;;;;;;;26.68;34.51;97043.31;4995108;28;20062;-82
2021/09/03 11:01:35;;;;;;;3.85;2.80;;;;;;;26.70;34.34;97040.38;4995910;28;20065;-82
2021/09/03 11:04:06;;;;;;;3.50;2.70;;;;;;;26.70;34.49;97041.16;4995337;28;20054;-82
2021/09/03 11:06:39;;;;;;;3.28;2.80;;;;;;;26.62;34.09;97039.06;4995115;28;20073;-81
2021/09/03 11:09:24;;;;;;;3.38;2.70;;;;;;;26.54;34.78;97041.47;4995141;28;20495;-82
2021/09/03 11:11:54;;;;;;;4.75;2.97;;;;;;;26.51;34.70;97038.28;4995400;28;20054;-82
2021/09/03 11:14:23;;;;;;;5.55;3.28;;;;;;;26.48;34.40;97038.03;4995214;28;20054;-82
2021/09/03 11:16:56;;;;;;;4.30;2.58;;;;;;;26.44;33.19;97032.41;4994854;28;20057;-81
2021/09/03 11:19:27;;;;;;;3.30;2.95;;;;;;;26.40;33.42;97035.91;4994747;28;20415;-82
2021/09/03 11:21:58;;;;;;;4.18;2.83;;;;;;;26.39;34.40;97029.78;4995001;28;20050;-82
2021/09/03 11:24:27;;;;;;;3.10;2.72;;;;;;;26.48;35.44;97032.69;4994920;28;20062;-82
2021/09/03 11:26:56;;;;;;;2.80;2.47;;;;;;;26.57;33.76;97022.25;4994894;28;20152;-82
2021/09/03 11:29:27;;;;;;;3.25;2.75;;;;;;;26.62;33.47;97017.66;4994396;28;20057;-82
2021/09/03 11:32:02;;;;;;;4.38;2.40;;;;;;;26.71;33.71;97010.66;4995192;28;20065;-82
2021/09/03 11:34:53;;;;;;;2.70;2.22;;;;;;;26.75;31.86;97015.47;4994562;28;20050;-82
2021/09/03 11:37:27;;;;;;;2.60;2.40;;;;;;;26.64;32.43;97010.16;4996993;28;20522;-81
2021/09/03 11:39:57;;;;;;;3.22;2.92;;;;;;;26.61;33.62;97001.88;4994318;28;20415;-81
2021/09/03 11:42:26;;;;;;;2.97;2.58;;;;;;;26.61;33.34;97002.69;4995258;28;20419;-82
2021/09/03 11:44:56;;;;;;;3.10;2.85;;;;;;;26.62;33.96;97006.94;4994377;28;20504;-82
2021/09/03 11:47:35;;;;;;;4.18;2.83;;;;;;;26.62;34.77;97004.28;4994371;28;20047;-82